createdAt,value
2022-07-26T00:00:44.926Z,85.78
2022-07-26T00:01:45.310Z,85.97
2022-07-26T00:02:48.191Z,85.68
2022-07-26T00:03:45.758Z,85.38
2022-07-26T00:04:46.009Z,85.38
2022-07-26T00:05:46.213Z,84.57
2022-07-26T00:06:46.561Z,84.27
2022-07-26T00:07:46.916Z,84.93
2022-07-26T00:08:47.132Z,85.83
2022-07-26T00:09:48.576Z,85.63
2022-07-26T00:10:47.792Z,85.83
2022-07-26T00:11:48.140Z,84.53
2022-07-26T00:12:48.493Z,84.63
2022-07-26T00:13:48.702Z,84.83
2022-07-26T00:14:49.086Z,85.03
2022-07-26T00:15:49.323Z,85.03
2022-07-26T00:16:49.670Z,84.74
2022-07-26T00:17:49.874Z,84.69
2022-07-26T00:18:50.226Z,85.19
2022-07-26T00:19:50.455Z,84.59
2022-07-26T00:20:50.801Z,83.29
2022-07-26T00:21:51.088Z,83.59
2022-07-26T00:22:51.426Z,83.39
2022-07-26T00:23:51.797Z,83.79
2022-07-26T00:24:52.030Z,83.59
2022-07-26T00:25:52.238Z,83.89
2022-07-26T00:26:52.571Z,84.09
2022-07-26T00:27:52.927Z,83.99
2022-07-26T00:28:53.192Z,84.09
2022-07-26T00:29:53.450Z,84.39
2022-07-26T00:30:53.689Z,84.69
2022-07-26T00:31:54.021Z,84.89
2022-07-26T00:32:54.249Z,84.69
2022-07-26T00:33:54.521Z,84.79
2022-07-26T00:34:54.765Z,84.89
2022-07-26T00:35:54.992Z,84.03
2022-07-26T00:36:55.233Z,84.33
2022-07-26T00:37:55.474Z,84.23
2022-07-26T00:38:55.714Z,84.43
2022-07-26T00:39:55.925Z,84.83
2022-07-26T00:40:56.274Z,85.03
2022-07-26T00:41:56.636Z,85.13
2022-07-26T00:42:56.866Z,85.13
2022-07-26T00:43:57.098Z,85.44
2022-07-26T00:44:57.366Z,85.49
2022-07-26T00:45:57.631Z,85.49
2022-07-26T00:46:57.843Z,85.49
2022-07-26T00:47:58.180Z,85.19
2022-07-26T00:48:58.602Z,85.10
2022-07-26T00:49:58.833Z,85.30
2022-07-26T00:50:59.179Z,85.30
2022-07-26T00:51:59.517Z,85.39
2022-07-26T00:52:59.861Z,84.89
2022-07-26T00:54:00.202Z,84.89
2022-07-26T00:55:00.532Z,84.79
2022-07-26T00:56:00.873Z,85.10
2022-07-26T00:57:01.213Z,84.29
2022-07-26T00:58:01.643Z,84.09
2022-07-26T00:59:01.892Z,83.69
2022-07-26T01:00:02.234Z,83.49
2022-07-26T01:01:02.581Z,83.39
2022-07-26T01:02:02.886Z,83.59
2022-07-26T01:03:02.964Z,83.69
2022-07-26T01:04:03.312Z,83.99
2022-07-26T01:05:03.665Z,83.99
2022-07-26T01:06:03.896Z,84.19
2022-07-26T01:07:14.720Z,83.99
2022-07-26T01:08:05.475Z,83.79
2022-07-26T01:09:04.775Z,83.69
2022-07-26T01:10:04.996Z,83.29
2022-07-26T01:11:05.348Z,82.99
2022-07-26T01:12:05.675Z,82.79
2022-07-26T01:13:06.006Z,82.99
2022-07-26T01:14:06.621Z,83.29
2022-07-26T01:15:06.689Z,83.39
2022-07-26T01:16:07.129Z,83.19
2022-07-26T01:17:07.392Z,83.29
2022-07-26T01:18:07.603Z,82.89
2022-07-26T01:19:07.988Z,83.09
2022-07-26T01:20:08.256Z,83.19
2022-07-26T01:21:13.597Z,83.19
2022-07-26T01:22:14.148Z,83.29
2022-07-26T01:23:09.202Z,83.19
2022-07-26T01:24:09.846Z,83.23
2022-07-26T01:25:09.814Z,83.43
2022-07-26T01:26:10.041Z,83.33
2022-07-26T01:27:10.425Z,83.33
2022-07-26T01:28:10.645Z,83.43
2022-07-26T01:29:11.017Z,83.33
2022-07-26T01:30:11.270Z,83.03
2022-07-26T01:31:11.553Z,83.23
2022-07-26T01:32:11.815Z,83.73
2022-07-26T01:33:12.066Z,83.73
2022-07-26T01:34:12.465Z,83.83
2022-07-26T01:35:12.627Z,83.63
2022-07-26T01:36:12.972Z,83.63
2022-07-26T01:37:13.182Z,83.83
2022-07-26T01:38:13.530Z,83.83
2022-07-26T01:39:13.765Z,83.93
2022-07-26T01:40:14.052Z,83.73
2022-07-26T01:41:14.279Z,83.83
2022-07-26T01:42:14.489Z,83.93
2022-07-26T01:43:14.866Z,83.93
2022-07-26T01:44:15.094Z,83.73
2022-07-26T01:45:15.323Z,83.77
2022-07-26T01:46:15.756Z,83.97
2022-07-26T01:47:16.011Z,84.17
2022-07-26T01:48:16.332Z,84.27
2022-07-26T01:49:16.750Z,84.17
2022-07-26T01:50:17.071Z,84.27
2022-07-26T01:51:17.293Z,84.27
2022-07-26T01:52:17.734Z,84.37
2022-07-26T01:53:17.975Z,84.37
2022-07-26T01:54:22.328Z,84.17
2022-07-26T01:55:19.456Z,84.17
2022-07-26T01:56:18.728Z,83.77
2022-07-26T01:57:19.077Z,83.87
2022-07-26T01:58:19.287Z,84.07
2022-07-26T01:59:19.638Z,83.67
2022-07-26T02:00:19.870Z,83.77
2022-07-26T02:01:20.107Z,83.77
2022-07-26T02:02:21.528Z,83.87
2022-07-26T02:03:20.805Z,83.97
2022-07-26T02:04:21.059Z,84.17
2022-07-26T02:05:21.267Z,84.07
2022-07-26T02:06:21.597Z,83.87
2022-07-26T02:07:21.820Z,83.77
2022-07-26T02:08:22.345Z,83.97
2022-07-26T02:09:22.414Z,83.77
2022-07-26T02:10:22.633Z,83.97
2022-07-26T02:11:22.841Z,84.07
2022-07-26T02:12:23.214Z,84.07
2022-07-26T02:13:23.430Z,84.17
2022-07-26T02:14:26.017Z,84.27
2022-07-26T02:15:24.005Z,84.37
2022-07-26T02:16:24.406Z,84.37
2022-07-26T02:17:24.656Z,84.37
2022-07-26T02:18:25.044Z,84.37
2022-07-26T02:19:25.285Z,84.37
2022-07-26T02:20:25.534Z,84.17
2022-07-26T02:21:25.797Z,84.17
2022-07-26T02:22:26.028Z,84.17
2022-07-26T02:23:26.385Z,83.97
2022-07-26T02:24:26.654Z,83.87
2022-07-26T02:25:26.859Z,83.97
2022-07-26T02:26:27.215Z,83.97
2022-07-26T02:27:27.418Z,83.87
2022-07-26T02:28:27.779Z,83.77
2022-07-26T02:29:28.012Z,83.57
2022-07-26T02:30:28.237Z,83.47
2022-07-26T02:31:32.318Z,83.57
2022-07-26T02:32:28.840Z,83.47
2022-07-26T02:33:29.192Z,83.57
2022-07-26T02:35:45.146Z,83.57
2022-07-26T02:36:45.297Z,83.67
2022-07-26T02:37:45.670Z,83.67
2022-07-26T02:38:45.860Z,83.77
2022-07-26T02:39:46.129Z,83.87
2022-07-26T02:40:46.361Z,83.77
2022-07-26T02:41:46.716Z,83.77
2022-07-26T02:42:46.931Z,83.57
2022-07-26T02:43:47.174Z,83.47
2022-07-26T02:44:47.432Z,83.47
2022-07-26T02:46:00.817Z,83.67
2022-07-26T02:46:48.983Z,83.67
2022-07-26T02:47:48.246Z,83.77
2022-07-26T02:48:48.713Z,84.07
2022-07-26T02:49:48.914Z,84.17
2022-07-26T02:50:49.174Z,84.17
2022-07-26T02:51:49.427Z,84.17
2022-07-26T02:52:49.767Z,84.17
2022-07-26T02:53:50.010Z,84.17
2022-07-26T02:54:50.355Z,84.17
2022-07-26T02:55:50.582Z,84.17
2022-07-26T02:56:50.876Z,84.11
2022-07-26T02:57:51.126Z,84.21
2022-07-26T02:58:51.427Z,84.21
2022-07-26T02:59:51.718Z,84.11
2022-07-26T03:00:52.058Z,84.11
2022-07-26T03:01:52.345Z,84.01
2022-07-26T03:02:52.714Z,84.11
2022-07-26T03:03:52.970Z,84.01
2022-07-26T03:04:53.299Z,84.11
2022-07-26T03:05:53.758Z,84.01
2022-07-26T03:06:53.989Z,83.71
2022-07-26T03:07:54.291Z,83.91
2022-07-26T03:08:54.457Z,84.01
2022-07-26T03:09:54.811Z,84.01
2022-07-26T03:10:55.084Z,84.01
2022-07-26T03:11:55.371Z,84.11
2022-07-26T03:12:55.662Z,84.11
2022-07-26T03:13:55.947Z,84.11
2022-07-26T03:14:56.216Z,84.21
2022-07-26T03:15:56.589Z,84.11
2022-07-26T03:16:56.803Z,84.21
2022-07-26T03:17:56.939Z,84.21
2022-07-26T03:18:57.235Z,84.21
2022-07-26T03:19:57.554Z,84.21
2022-07-26T03:20:57.815Z,84.01
2022-07-26T03:21:58.106Z,84.01
2022-07-26T03:22:58.365Z,83.91
2022-07-26T03:23:58.629Z,83.81
2022-07-26T03:24:58.922Z,83.81
2022-07-26T03:25:59.235Z,83.81
2022-07-26T03:26:59.497Z,83.91
2022-07-26T03:27:59.809Z,84.01
2022-07-26T03:29:00.178Z,84.01
2022-07-26T03:30:00.488Z,84.01
2022-07-26T03:31:00.923Z,83.91
2022-07-26T03:32:01.349Z,83.91
2022-07-26T03:33:01.556Z,84.11
2022-07-26T03:34:03.444Z,84.11
2022-07-26T03:35:01.952Z,84.11
2022-07-26T03:36:02.224Z,84.21
2022-07-26T03:37:02.482Z,84.21
2022-07-26T03:38:02.734Z,84.11
2022-07-26T03:39:03.012Z,84.11
2022-07-26T03:40:03.346Z,84.11
2022-07-26T03:41:03.604Z,84.21
2022-07-26T03:42:03.944Z,84.31
2022-07-26T03:43:04.186Z,84.31
2022-07-26T03:44:04.776Z,84.31
2022-07-26T03:45:04.776Z,84.31
2022-07-26T03:46:05.046Z,84.31
2022-07-26T03:47:05.309Z,84.21
2022-07-26T03:48:05.577Z,84.01
2022-07-26T03:49:05.964Z,84.01
2022-07-26T03:50:06.190Z,83.91
2022-07-26T03:51:06.528Z,83.81
2022-07-26T03:52:06.891Z,83.57
2022-07-26T03:53:07.077Z,83.47
2022-07-26T03:54:07.710Z,83.57
2022-07-26T03:55:07.679Z,83.37
2022-07-26T03:56:07.920Z,83.37
2022-07-26T03:57:08.080Z,83.47
2022-07-26T03:58:08.359Z,83.47
2022-07-26T03:59:08.801Z,83.17
2022-07-26T04:00:09.012Z,83.17
2022-07-26T04:01:09.301Z,83.17
2022-07-26T04:02:09.701Z,83.27
2022-07-26T04:03:09.936Z,83.27
2022-07-26T04:04:10.804Z,83.17
2022-07-26T04:05:10.633Z,83.17
2022-07-26T04:06:10.935Z,83.27
2022-07-26T04:07:11.146Z,83.27
2022-07-26T04:08:11.424Z,83.27
2022-07-26T04:09:11.728Z,83.17
2022-07-26T04:10:12.036Z,83.07
2022-07-26T04:11:12.328Z,83.07
2022-07-26T04:12:12.620Z,83.07
2022-07-26T04:13:12.937Z,82.67
2022-07-26T04:14:13.251Z,82.73
2022-07-26T04:15:13.551Z,82.53
2022-07-26T04:16:13.865Z,82.53
2022-07-26T04:17:14.247Z,82.32
2022-07-26T04:18:14.506Z,82.12
2022-07-26T04:19:14.832Z,82.23
2022-07-26T04:20:15.149Z,82.12
2022-07-26T04:21:15.460Z,81.93
2022-07-26T04:22:15.750Z,81.93
2022-07-26T04:23:16.011Z,81.73
2022-07-26T04:24:16.315Z,81.62
2022-07-26T04:25:16.641Z,81.29
2022-07-26T04:26:16.927Z,81.18
2022-07-26T04:27:17.187Z,81.09
2022-07-26T04:28:17.472Z,80.98
2022-07-26T04:29:17.772Z,80.79
2022-07-26T04:30:18.079Z,80.79
2022-07-26T04:31:18.450Z,80.58
2022-07-26T04:32:18.628Z,80.58
2022-07-26T04:33:18.899Z,80.68
2022-07-26T04:34:19.195Z,80.58
2022-07-26T04:35:19.523Z,80.28
2022-07-26T04:36:19.809Z,80.24
2022-07-26T04:37:20.126Z,80.24
2022-07-26T04:38:20.407Z,80.24
2022-07-26T04:39:20.699Z,79.94
2022-07-26T04:40:21.373Z,79.85
2022-07-26T04:41:21.326Z,79.85
2022-07-26T04:42:21.578Z,79.94
2022-07-26T04:43:21.929Z,79.94
2022-07-26T04:44:22.211Z,79.94
2022-07-26T04:45:22.520Z,79.85
2022-07-26T04:46:22.894Z,79.74
2022-07-26T04:47:23.052Z,79.74
2022-07-26T04:48:23.312Z,79.94
2022-07-26T04:49:23.585Z,79.74
2022-07-26T04:50:23.881Z,79.44
2022-07-26T04:51:24.163Z,79.74
2022-07-26T04:52:24.418Z,79.54
2022-07-26T04:53:24.834Z,79.64
2022-07-26T04:54:25.002Z,79.54
2022-07-26T04:55:25.308Z,79.54
2022-07-26T04:56:25.566Z,79.44
2022-07-26T04:57:25.815Z,79.24
2022-07-26T04:58:26.121Z,79.24
2022-07-26T04:59:26.462Z,79.34
2022-07-26T05:00:26.785Z,79.14
2022-07-26T05:01:27.116Z,79.24
2022-07-26T05:02:27.585Z,79.04
2022-07-26T05:03:27.680Z,78.91
2022-07-26T05:04:27.981Z,78.50
2022-07-26T05:05:28.303Z,78.50
2022-07-26T05:06:28.587Z,78.36
2022-07-26T05:07:28.859Z,78.17
2022-07-26T05:08:29.122Z,77.53
2022-07-26T05:09:29.396Z,76.89
2022-07-26T05:10:29.739Z,76.45
2022-07-26T05:11:30.017Z,76.12
2022-07-26T05:12:30.290Z,75.52
2022-07-26T05:13:31.133Z,75.32
2022-07-26T05:14:30.886Z,74.79
2022-07-26T05:15:35.297Z,74.49
2022-07-26T05:16:31.443Z,74.05
2022-07-26T05:17:31.616Z,73.65
2022-07-26T05:18:46.122Z,73.11
2022-07-26T05:19:33.164Z,72.72
2022-07-26T05:20:32.430Z,72.52
2022-07-26T05:21:32.717Z,72.32
2022-07-26T05:22:33.005Z,72.32
2022-07-26T05:23:33.268Z,72.42
2022-07-26T05:24:33.560Z,72.52
2022-07-26T05:25:33.842Z,72.08
2022-07-26T05:26:34.108Z,71.48
2022-07-26T05:27:34.388Z,71.35
2022-07-26T05:28:34.668Z,70.75
2022-07-26T05:29:34.942Z,70.86
2022-07-26T05:30:35.312Z,70.95
2022-07-26T05:31:35.462Z,70.45
2022-07-26T05:32:35.752Z,70.03
2022-07-26T05:33:36.014Z,69.82
2022-07-26T05:34:36.282Z,69.39
2022-07-26T05:35:36.593Z,68.79
2022-07-26T05:36:36.865Z,68.66
2022-07-26T05:37:37.155Z,68.16
2022-07-26T05:38:37.425Z,67.97
2022-07-26T05:39:37.687Z,67.57
2022-07-26T05:40:37.975Z,67.47
2022-07-26T05:41:38.236Z,67.86
2022-07-26T05:42:38.517Z,68.16
2022-07-26T05:43:40.910Z,67.67
2022-07-26T05:44:42.475Z,67.27
2022-07-26T05:45:39.422Z,67.47
2022-07-26T05:46:39.605Z,67.14
2022-07-26T05:47:40.029Z,66.41
2022-07-26T05:48:40.319Z,65.78
2022-07-26T05:49:40.908Z,65.06
2022-07-26T05:50:40.825Z,64.16
2022-07-26T05:51:40.962Z,63.96
2022-07-26T05:52:41.232Z,63.96
2022-07-26T05:53:41.501Z,64.16
2022-07-26T05:54:41.813Z,63.89
2022-07-26T05:55:42.113Z,63.86
2022-07-26T05:56:42.383Z,63.57
2022-07-26T05:57:42.653Z,63.96
2022-07-26T05:58:42.929Z,63.67
2022-07-26T05:59:43.205Z,63.37
2022-07-26T06:00:48.259Z,64.46
2022-07-26T06:01:44.767Z,64.33
2022-07-26T06:02:44.132Z,63.83
2022-07-26T06:03:44.517Z,64.13
2022-07-26T06:04:44.721Z,64.00
2022-07-26T06:05:44.959Z,64.49
2022-07-26T06:06:45.228Z,64.49
2022-07-26T06:07:45.506Z,63.67
2022-07-26T06:08:45.779Z,64.29
2022-07-26T06:09:46.040Z,65.12
2022-07-26T06:10:46.378Z,65.31
2022-07-26T06:11:46.622Z,64.29
2022-07-26T06:12:46.897Z,64.00
2022-07-26T06:13:47.192Z,63.46
2022-07-26T06:14:47.491Z,63.57
2022-07-26T06:15:47.845Z,64.19
2022-07-26T06:16:48.101Z,64.82
2022-07-26T06:17:48.254Z,65.25
2022-07-26T06:18:48.533Z,64.62
2022-07-26T06:19:48.836Z,64.22
2022-07-26T06:20:49.115Z,64.85
2022-07-26T06:21:49.373Z,65.05
2022-07-26T06:22:49.641Z,64.52
2022-07-26T06:23:49.919Z,63.60
2022-07-26T06:24:50.203Z,63.37
2022-07-26T06:25:50.529Z,62.71
2022-07-26T06:26:56.336Z,61.32
2022-07-26T06:27:52.170Z,61.19
2022-07-26T06:28:51.369Z,61.19
2022-07-26T06:29:51.655Z,62.15
2022-07-26T06:30:51.972Z,62.87
2022-07-26T06:31:52.291Z,64.03
2022-07-26T06:32:52.563Z,65.15
2022-07-26T06:33:52.866Z,65.98
2022-07-26T06:34:53.155Z,66.01
2022-07-26T06:35:53.456Z,67.33
2022-07-26T06:36:53.733Z,66.44
2022-07-26T06:37:54.018Z,66.74
2022-07-26T06:38:54.272Z,66.83
2022-07-26T06:39:54.549Z,66.64
2022-07-26T06:40:54.842Z,67.43
2022-07-26T06:41:55.290Z,67.24
2022-07-26T06:42:55.410Z,67.03
2022-07-26T06:43:55.779Z,67.24
2022-07-26T06:44:55.944Z,67.57
2022-07-26T06:45:56.368Z,67.47
2022-07-26T06:46:56.524Z,68.60
2022-07-26T06:47:56.812Z,68.60
2022-07-26T06:48:57.316Z,68.53
2022-07-26T06:49:57.315Z,69.13
2022-07-26T06:50:57.624Z,69.02
2022-07-26T06:51:57.983Z,68.83
2022-07-26T06:52:58.255Z,68.63
2022-07-26T06:53:58.565Z,68.83
2022-07-26T06:54:58.856Z,69.02
2022-07-26T06:55:59.207Z,68.73
2022-07-26T06:56:59.477Z,68.63
2022-07-26T06:57:59.798Z,68.73
2022-07-26T06:59:00.167Z,68.83
2022-07-26T07:00:00.391Z,68.83
2022-07-26T07:01:00.650Z,68.96
2022-07-26T07:02:00.885Z,69.36
2022-07-26T07:03:01.105Z,69.66
2022-07-26T07:04:01.381Z,69.76
2022-07-26T07:05:01.749Z,69.86
2022-07-26T07:06:01.952Z,69.66
2022-07-26T07:07:02.291Z,69.69
2022-07-26T07:08:02.523Z,69.76
2022-07-26T07:09:03.024Z,69.86
2022-07-26T07:10:03.243Z,70.26
2022-07-26T07:11:03.471Z,70.49
2022-07-26T07:12:10.398Z,70.69
2022-07-26T07:13:05.065Z,69.99
2022-07-26T07:14:04.348Z,70.29
2022-07-26T07:15:04.656Z,69.99
2022-07-26T07:16:05.021Z,69.46
2022-07-26T07:17:13.005Z,69.46
2022-07-26T07:18:06.517Z,69.56
2022-07-26T07:19:05.776Z,70.16
2022-07-26T07:20:06.069Z,69.86
2022-07-26T07:21:06.378Z,69.29
2022-07-26T07:22:06.720Z,69.39
2022-07-26T07:23:06.891Z,69.09
2022-07-26T07:24:07.509Z,69.39
2022-07-26T07:25:07.521Z,69.56
2022-07-26T07:26:07.872Z,69.56
2022-07-26T07:27:08.170Z,69.76
2022-07-26T07:28:08.460Z,69.56
2022-07-26T07:29:08.730Z,69.56
2022-07-26T07:30:09.031Z,69.16
2022-07-26T07:31:09.460Z,69.16
2022-07-26T07:32:18.175Z,69.16
2022-07-26T07:33:22.488Z,69.16
2022-07-26T07:34:11.655Z,69.26
2022-07-26T07:35:12.869Z,68.86
2022-07-26T07:36:10.848Z,69.16
2022-07-26T07:37:11.116Z,69.06
2022-07-26T07:38:11.426Z,68.96
2022-07-26T07:39:17.116Z,68.56
2022-07-26T07:40:13.015Z,68.76
2022-07-26T07:41:12.371Z,68.96
2022-07-26T07:42:12.648Z,69.16
2022-07-26T07:43:12.929Z,68.96
2022-07-26T07:44:13.212Z,68.76
2022-07-26T07:45:13.506Z,69.56
2022-07-26T07:46:13.890Z,68.96
2022-07-26T07:47:14.139Z,69.26
2022-07-26T07:48:14.291Z,69.86
2022-07-26T07:49:14.635Z,69.69
2022-07-26T07:50:14.823Z,69.49
2022-07-26T07:51:15.123Z,69.20
2022-07-26T07:52:15.423Z,69.06
2022-07-26T07:53:15.703Z,68.96
2022-07-26T07:54:16.014Z,69.16
2022-07-26T07:55:28.702Z,69.16
2022-07-26T07:56:17.615Z,68.96
2022-07-26T07:57:16.819Z,69.06
2022-07-26T07:58:18.838Z,68.76
2022-07-26T07:59:17.432Z,68.96
2022-07-26T08:00:17.783Z,68.40
2022-07-26T08:01:17.999Z,68.76
2022-07-26T08:02:18.187Z,68.46
2022-07-26T08:03:18.795Z,67.96
2022-07-26T08:04:18.935Z,68.26
2022-07-26T08:05:19.342Z,67.76
2022-07-26T08:06:19.658Z,68.03
2022-07-26T08:07:19.723Z,67.93
2022-07-26T08:08:22.516Z,67.53
2022-07-26T08:09:20.333Z,67.73
2022-07-26T08:10:20.651Z,67.26
2022-07-26T08:11:20.911Z,67.36
2022-07-26T08:12:21.143Z,67.66
2022-07-26T08:13:21.832Z,67.26
2022-07-26T08:14:21.622Z,66.93
2022-07-26T08:15:21.917Z,66.83
2022-07-26T08:16:22.277Z,66.83
2022-07-26T08:17:22.527Z,66.43
2022-07-26T08:18:22.908Z,67.03
2022-07-26T08:19:23.084Z,66.93
2022-07-26T08:20:24.905Z,66.93
2022-07-26T08:21:23.774Z,66.03
2022-07-26T08:22:24.096Z,66.33
2022-07-26T08:23:24.388Z,66.53
2022-07-26T08:24:24.564Z,66.73
2022-07-26T08:25:24.909Z,65.53
2022-07-26T08:26:25.292Z,65.83
2022-07-26T08:27:25.594Z,66.20
2022-07-26T08:28:46.394Z,65.80
2022-07-26T08:29:27.320Z,65.61
2022-07-26T08:30:26.482Z,65.41
2022-07-26T08:31:26.854Z,64.71
2022-07-26T08:32:27.005Z,65.37
2022-07-26T08:33:27.261Z,65.37
2022-07-26T08:35:27.793Z,65.67
2022-07-26T08:36:32.208Z,65.67
2022-07-26T08:37:28.306Z,65.47
2022-07-26T08:38:28.602Z,64.87
2022-07-26T08:39:28.838Z,64.67
2022-07-26T08:40:29.087Z,64.18
2022-07-26T08:41:29.337Z,64.37
2022-07-26T08:42:29.596Z,64.67
2022-07-26T08:43:29.976Z,64.41
2022-07-26T08:44:30.068Z,64.07
2022-07-26T08:45:30.321Z,64.37
2022-07-26T08:46:30.621Z,64.07
2022-07-26T08:47:37.980Z,64.01
2022-07-26T08:48:35.768Z,64.01
2022-07-26T08:49:32.493Z,63.81
2022-07-26T08:50:31.675Z,63.31
2022-07-26T08:51:31.922Z,63.41
2022-07-26T08:52:32.183Z,62.91
2022-07-26T08:53:32.433Z,63.41
2022-07-26T08:54:32.696Z,63.64
2022-07-26T08:55:50.581Z,63.94
2022-07-26T08:56:34.319Z,63.74
2022-07-26T08:57:33.624Z,63.54
2022-07-26T08:58:33.919Z,63.74
2022-07-26T08:59:34.156Z,63.34
2022-07-26T09:00:34.494Z,63.44
2022-07-26T09:01:34.718Z,63.14
2022-07-26T09:02:34.907Z,63.34
2022-07-26T09:03:35.189Z,63.74
2022-07-26T09:04:38.815Z,63.51
2022-07-26T09:05:36.785Z,63.41
2022-07-26T09:06:36.110Z,63.08
2022-07-26T09:07:36.358Z,63.45
2022-07-26T09:08:36.628Z,63.35
2022-07-26T09:09:36.886Z,63.15
2022-07-26T09:10:39.167Z,64.31
2022-07-26T09:11:37.532Z,64.01
2022-07-26T09:12:37.822Z,63.02
2022-07-26T09:13:38.175Z,62.52
2022-07-26T09:14:38.345Z,62.32
2022-07-26T09:15:38.654Z,62.23
2022-07-26T09:16:40.008Z,62.52
2022-07-26T09:17:39.087Z,62.32
2022-07-26T09:18:39.474Z,62.13
2022-07-26T09:19:39.707Z,62.59
2022-07-26T09:20:39.988Z,63.19
2022-07-26T09:21:40.305Z,62.19
2022-07-26T09:22:40.577Z,61.90
2022-07-26T09:23:40.879Z,61.90
2022-07-26T09:24:41.175Z,61.90
2022-07-26T09:25:41.453Z,61.53
2022-07-26T09:26:41.765Z,61.93
2022-07-26T09:27:42.065Z,61.72
2022-07-26T09:28:45.036Z,61.13
2022-07-26T09:29:42.693Z,61.16
2022-07-26T09:30:42.983Z,61.33
2022-07-26T09:31:43.316Z,60.93
2022-07-26T09:32:43.561Z,60.93
2022-07-26T09:33:43.847Z,60.53
2022-07-26T09:34:52.021Z,60.03
2022-07-26T09:35:51.290Z,60.21
2022-07-26T09:36:46.145Z,60.80
2022-07-26T09:37:44.995Z,60.70
2022-07-26T09:38:45.281Z,60.60
2022-07-26T09:39:45.565Z,59.70
2022-07-26T09:40:49.603Z,60.11
2022-07-26T09:41:49.393Z,59.61
2022-07-26T09:42:47.422Z,59.41
2022-07-26T09:43:51.568Z,59.81
2022-07-26T09:44:48.284Z,59.81
2022-07-26T09:45:47.150Z,60.21
2022-07-26T09:46:47.488Z,60.60
2022-07-26T09:47:47.790Z,59.70
2022-07-26T09:49:49.369Z,59.81
2022-07-26T09:50:49.372Z,60.00
2022-07-26T09:51:48.873Z,60.13
2022-07-26T09:52:49.166Z,60.13
2022-07-26T09:53:49.457Z,60.13
2022-07-26T09:54:50.517Z,60.11
2022-07-26T09:55:49.984Z,60.11
2022-07-26T09:56:50.317Z,60.24
2022-07-26T09:57:50.696Z,60.60
2022-07-26T09:58:50.947Z,60.11
2022-07-26T09:59:51.229Z,60.11
2022-07-26T10:00:51.497Z,59.91
2022-07-26T10:01:51.968Z,60.27
2022-07-26T10:02:52.152Z,59.38
2022-07-26T10:03:52.480Z,59.18
2022-07-26T10:04:52.787Z,59.08
2022-07-26T10:05:53.061Z,59.51
2022-07-26T10:06:53.399Z,60.00
2022-07-26T10:07:53.680Z,59.81
2022-07-26T10:08:53.981Z,59.91
2022-07-26T10:09:54.264Z,59.21
2022-07-26T10:10:54.542Z,59.44
2022-07-26T10:11:54.857Z,59.74
2022-07-26T10:12:55.142Z,59.64
2022-07-26T10:13:55.372Z,58.44
2022-07-26T10:14:55.708Z,58.44
2022-07-26T10:15:56.043Z,58.54
2022-07-26T10:16:56.315Z,58.74
2022-07-26T10:17:56.586Z,58.84
2022-07-26T10:18:56.880Z,59.04
2022-07-26T10:19:57.137Z,58.74
2022-07-26T10:20:57.439Z,59.34
2022-07-26T10:21:57.768Z,58.84
2022-07-26T10:22:58.142Z,59.14
2022-07-26T10:23:58.328Z,58.64
2022-07-26T10:24:58.749Z,58.04
2022-07-26T10:26:00.453Z,58.84
2022-07-26T10:26:59.233Z,58.94
2022-07-26T10:27:59.404Z,59.34
2022-07-26T10:28:59.679Z,59.04
2022-07-26T10:29:59.974Z,59.23
2022-07-26T10:31:01.017Z,59.34
2022-07-26T10:32:01.301Z,59.56
2022-07-26T10:33:01.537Z,59.86
2022-07-26T10:34:01.043Z,61.36
2022-07-26T10:35:01.333Z,62.18
2022-07-26T10:36:01.618Z,63.48
2022-07-26T10:37:01.925Z,63.68
2022-07-26T10:38:02.246Z,63.61
2022-07-26T10:39:02.533Z,64.71
2022-07-26T10:40:02.798Z,65.41
2022-07-26T10:41:03.096Z,65.44
2022-07-26T10:42:03.407Z,65.64
2022-07-26T10:43:22.993Z,66.83
2022-07-26T10:44:05.029Z,66.13
2022-07-26T10:45:04.238Z,65.53
2022-07-26T10:46:04.561Z,65.44
2022-07-26T10:47:04.820Z,65.80
2022-07-26T10:48:05.150Z,66.97
2022-07-26T10:49:05.546Z,65.97
2022-07-26T10:50:05.753Z,66.07
2022-07-26T10:51:06.623Z,64.87
2022-07-26T10:52:06.355Z,64.58
2022-07-26T10:53:06.660Z,64.54
2022-07-26T10:54:07.050Z,64.64
2022-07-26T10:55:07.158Z,64.15
2022-07-26T10:56:07.437Z,63.85
2022-07-26T10:57:08.694Z,64.31
2022-07-26T10:58:08.045Z,64.12
2022-07-26T10:59:08.332Z,63.32
2022-07-26T11:00:08.616Z,63.22
2022-07-26T11:01:08.974Z,62.89
2022-07-26T11:02:09.747Z,63.19
2022-07-26T11:03:09.552Z,63.39
2022-07-26T11:04:10.945Z,63.39
2022-07-26T11:05:09.970Z,62.40
2022-07-26T11:06:10.251Z,62.69
2022-07-26T11:07:10.642Z,62.79
2022-07-26T11:08:11.014Z,63.09
2022-07-26T11:09:11.022Z,62.89
2022-07-26T11:10:11.293Z,62.49
2022-07-26T11:11:11.564Z,61.90
2022-07-26T11:12:11.977Z,60.00
2022-07-26T11:13:12.091Z,61.60
2022-07-26T11:14:12.954Z,61.43
2022-07-26T11:15:12.669Z,61.03
2022-07-26T11:16:13.163Z,61.69
2022-07-26T11:17:13.325Z,61.80
2022-07-26T11:18:13.617Z,61.30
2022-07-26T11:19:13.956Z,61.69
2022-07-26T11:20:14.236Z,63.19
2022-07-26T11:21:14.537Z,62.40
2022-07-26T11:22:14.886Z,61.50
2022-07-26T11:23:15.168Z,61.40
2022-07-26T11:24:15.667Z,61.60
2022-07-26T11:25:15.759Z,61.50
2022-07-26T11:26:16.043Z,61.40
2022-07-26T11:27:16.330Z,61.80
2022-07-26T11:28:16.611Z,61.90
2022-07-26T11:29:17.811Z,61.72
2022-07-26T11:30:18.249Z,62.02
2022-07-26T11:31:17.638Z,61.33
2022-07-26T11:32:18.542Z,61.33
2022-07-26T11:33:18.166Z,61.03
2022-07-26T11:34:18.497Z,61.53
2022-07-26T11:35:18.768Z,61.13
2022-07-26T11:36:19.050Z,61.23
2022-07-26T11:37:19.389Z,60.93
2022-07-26T11:38:19.654Z,60.73
2022-07-26T11:39:19.926Z,60.40
2022-07-26T11:40:20.226Z,60.50
2022-07-26T11:41:20.486Z,60.40
2022-07-26T11:42:21.918Z,60.60
2022-07-26T11:43:21.159Z,59.81
2022-07-26T11:44:22.412Z,59.01
2022-07-26T11:45:21.773Z,59.70
2022-07-26T11:46:22.106Z,59.51
2022-07-26T11:47:25.754Z,59.31
2022-07-26T11:48:22.558Z,59.31
2022-07-26T11:49:25.133Z,58.84
2022-07-26T11:50:24.179Z,59.14
2022-07-26T11:51:23.324Z,59.83
2022-07-26T11:52:25.530Z,60.13
2022-07-26T11:53:23.892Z,60.06
2022-07-26T11:54:24.163Z,59.96
2022-07-26T11:55:24.438Z,60.46
2022-07-26T11:56:25.686Z,60.26
2022-07-26T11:57:25.026Z,60.26
2022-07-26T11:58:25.287Z,60.96
2022-07-26T11:59:25.611Z,60.79
2022-07-26T12:00:25.911Z,62.31
2022-07-26T12:01:26.151Z,63.64
2022-07-26T12:02:26.454Z,63.97
2022-07-26T12:03:26.740Z,64.80
2022-07-26T12:04:27.146Z,65.93
2022-07-26T12:05:27.467Z,66.43
2022-07-26T12:06:27.499Z,67.26
2022-07-26T12:07:27.808Z,67.46
2022-07-26T12:08:28.100Z,67.49
2022-07-26T12:09:28.379Z,67.99
2022-07-26T12:10:28.722Z,68.89
2022-07-26T12:11:29.038Z,69.49
2022-07-26T12:12:29.342Z,69.69
2022-07-26T12:13:29.632Z,69.82
2022-07-26T12:14:30.873Z,70.43
2022-07-26T12:15:30.333Z,70.43
2022-07-26T12:16:30.493Z,70.23
2022-07-26T12:17:35.179Z,70.53
2022-07-26T12:18:31.083Z,70.43
2022-07-26T12:19:31.365Z,70.29
2022-07-26T12:20:31.625Z,70.19
2022-07-26T12:21:31.909Z,70.49
2022-07-26T12:22:32.197Z,70.29
2022-07-26T12:23:32.446Z,70.59
2022-07-26T12:24:32.746Z,70.19
2022-07-26T12:25:32.997Z,70.29
2022-07-26T12:26:33.295Z,70.19
2022-07-26T12:27:33.598Z,70.69
2022-07-26T12:28:33.858Z,70.59
2022-07-26T12:29:34.154Z,71.12
2022-07-26T12:30:34.490Z,71.53
2022-07-26T12:31:34.834Z,71.92
2022-07-26T12:32:35.021Z,72.03
2022-07-26T12:33:35.313Z,72.23
2022-07-26T12:34:35.643Z,72.53
2022-07-26T12:35:35.980Z,71.92
2022-07-26T12:36:36.276Z,72.03
2022-07-26T12:37:40.677Z,72.13
2022-07-26T12:38:36.938Z,72.33
2022-07-26T12:39:37.254Z,71.83
2022-07-26T12:40:37.585Z,72.42
2022-07-26T12:41:37.884Z,72.33
2022-07-26T12:42:38.175Z,72.72
2022-07-26T12:43:38.433Z,73.06
2022-07-26T12:44:38.707Z,73.46
2022-07-26T12:45:39.087Z,73.36
2022-07-26T12:46:39.327Z,72.56
2022-07-26T12:47:39.580Z,72.23
2022-07-26T12:48:39.912Z,72.13
2022-07-26T12:49:40.229Z,72.13
2022-07-26T12:50:40.562Z,72.23
2022-07-26T12:51:40.820Z,72.23
2022-07-26T12:52:41.150Z,72.42
2022-07-26T12:53:41.452Z,72.63
2022-07-26T12:54:41.728Z,71.73
2022-07-26T12:55:41.982Z,71.92
2022-07-26T12:56:42.271Z,72.09
2022-07-26T12:57:47.198Z,71.69
2022-07-26T12:58:43.831Z,71.49
2022-07-26T12:59:45.090Z,71.89